Scot Bremen — 9HA4091 — position and weather

sailwx.info

Track history (hours):
 
Tides and Currents Weather Stations Pressure Air Temp Water Temp Dewpoint Dewpoint Depression Visibility Wind Speed Wind Dir Waves Ship Positions

Scot Bremen

Last reported at 2018-Feb-22 18:56 UTC. Time now 2018-Feb-22 19:25 UTC.
Position N 51°12' E 003°48'.

Length 117 m; draft 8.2 m.

Type: Ship (hazmat cat A). MMSI: 249086000.

Date/timePositionNaut miles runAvg speedWind from/ knotsBaromVisibWave heightAir tempDewpointWater temp
2018-Feb-22 18:56N 51°12' E 003°48'0 0.0
2018-Feb-22 18:26N 51°12' E 003°48'0 0.0
2018-Feb-22 17:56N 51°12' E 003°48'0 0.0
2018-Feb-22 17:26N 51°12' E 003°48'0 0.0
2018-Feb-22 16:44N 51°12' E 003°48'0 0.0
2018-Feb-22 16:20N 51°12' E 003°48'0 0.0
2018-Feb-22 15:56N 51°12' E 003°48'0 0.0
2018-Feb-22 15:26N 51°12' E 003°48'0 0.0
2018-Feb-22 14:50N 51°12' E 003°48'0 0.0
2018-Feb-22 14:20N 51°12' E 003°48'0 0.0
2018-Feb-22 13:56N 51°12' E 003°48'0 0.0
2018-Feb-22 13:02N 51°12' E 003°48'0 0.0
2018-Feb-22 12:50N 51°12' E 003°48'0 0.0
2018-Feb-22 12:26N 51°12' E 003°48'0 0.0
2018-Feb-22 11:56N 51°12' E 003°48'0 0.0
2018-Feb-22 11:20N 51°12' E 003°48'0 0.0
2018-Feb-22 10:56N 51°12' E 003°48'0 0.0
2018-Feb-22 10:26N 51°12' E 003°48'0 0.0
2018-Feb-22 09:56N 51°12' E 003°48'0 0.0
2018-Feb-22 09:20N 51°12' E 003°48'0 0.5
2018-Feb-22 09:00N 51°12' E 003°48'0 0.0
2018-Feb-22 08:30N 51°12' E 003°48'0 0.0
2018-Feb-22 08:00N 51°12' E 003°48'0 0.0
2018-Feb-22 07:30N 51°12' E 003°48'0 0.0
2018-Feb-22 07:00N 51°12' E 003°48'0 0.0
2018-Feb-22 06:16N 51°12' E 003°48'0 0.0
2018-Feb-22 06:00N 51°12' E 003°48'0 0.0
2018-Feb-22 05:30N 51°12' E 003°48'0 0.0
2018-Feb-22 04:54N 51°12' E 003°48'0 0.0
2018-Feb-22 04:30N 51°12' E 003°48'0 0.0
2018-Feb-22 04:00N 51°12' E 003°48'0 0.0
2018-Feb-22 03:30N 51°12' E 003°48'0 0.0
2018-Feb-22 03:00N 51°12' E 003°48'0 0.0
2018-Feb-22 02:30N 51°12' E 003°48'0 0.0
2018-Feb-22 02:00N 51°12' E 003°48'0 0.0
2018-Feb-22 01:30N 51°12' E 003°48'0 0.0
2018-Feb-22 01:00N 51°12' E 003°48'0 0.0
2018-Feb-22 00:30N 51°12' E 003°48'0 0.0
2018-Feb-22 00:00N 51°12' E 003°48'0 0.0
2018-Feb-21 23:30N 51°12' E 003°48'0 0.0
2018-Feb-21 23:00N 51°12' E 003°48'0 0.0
2018-Feb-21 22:30N 51°12' E 003°48'0 0.0
2018-Feb-21 22:00N 51°12' E 003°48'0 0.0
2018-Feb-21 21:30N 51°12' E 003°48'0 0.0
2018-Feb-21 21:00N 51°12' E 003°48'0 0.0
2018-Feb-21 20:30N 51°12' E 003°48'0 0.0
2018-Feb-21 20:00N 51°12' E 003°48'0 0.0
2018-Feb-21 19:30N 51°12' E 003°48'0 0.0
2018-Feb-21 18:48N 51°12' E 003°48'0 0.0
2018-Feb-21 18:30N 51°12' E 003°48'0 0.0
2018-Feb-21 18:00N 51°12' E 003°48'0 0.0
2018-Feb-21 17:30N 51°12' E 003°48'0 0.0
2018-Feb-21 16:54N 51°12' E 003°48'0 0.0
2018-Feb-21 16:30N 51°12' E 003°48'0 0.0
2018-Feb-21 16:00N 51°12' E 003°48'0 0.0
2018-Feb-21 15:24N 51°12' E 003°48'0 0.0
2018-Feb-21 15:00N 51°12' E 003°48'0 0.1
2018-Feb-21 14:30N 51°12' E 003°48'2 4.9
2018-Feb-21 14:01N 51°15' E 003°49'3 6.2
2018-Feb-21 13:31N 51°18' E 003°50'2 4.1
2018-Feb-21 13:00N 51°20' E 003°49'0 0.1
2018-Feb-21 12:30N 51°20' E 003°49'2 4.3
2018-Feb-21 12:00N 51°21' E 003°47'510.5
2018-Feb-21 11:30N 51°26' E 003°42'5 9.3
2018-Feb-21 11:00N 51°25' E 003°34'3 6.5
2018-Feb-21 10:30N 51°25' E 003°29'3 6.4
2018-Feb-21 10:00N 51°24' E 003°24'4 8.2
2018-Feb-21 09:30N 51°24' E 003°17'5 9.3
2018-Feb-21 09:00N 51°24' E 003°10'5 9.9
2018-Feb-21 08:30N 51°24' E 003°02'510.7
2018-Feb-21 08:00N 51°22' E 002°54'611.0
2018-Feb-21 07:30N 51°22' E 002°45'4 8.1
2018-Feb-21 06:59N 51°22' E 002°39'510.4
2018-Feb-21 06:30N 51°22' E 002°30'610.7
2018-Feb-21 05:59N 51°20' E 002°22'510.5
2018-Feb-21 05:30N 51°17' E 002°15'510.1
2018-Feb-21 05:01N 51°15' E 002°08'510.4
2018-Feb-21 04:29N 51°12' E 002°01'510.7
2018-Feb-21 04:00N 51°10' E 001°54'510.8
2018-Feb-21 03:30N 51°07' E 001°47'9310.5
2018-Feb-20 18:39N 50°17' W 000°17'23 8.7
2018-Feb-20 16:02N 50°11' W 000°51'0 8.6
2018-Feb-20 16:00N 50°11' W 000°52'4 8.7
2018-Feb-20 15:30N 50°10' W 000°58'5 9.0
2018-Feb-20 15:00N 50°09' W 001°05'5 9.8
2018-Feb-20 14:30N 50°07' W 001°12'510.4
2018-Feb-20 14:00N 50°06' W 001°20'611.2
2018-Feb-20 13:30N 50°04' W 001°28'611.9
2018-Feb-20 13:00N 50°02' W 001°37'612.7
2018-Feb-20 12:30N 50°00' W 001°47'713.4
2018-Feb-20 12:01N 49°59' W 001°57'713.9
2018-Feb-20 11:30N 49°57' W 002°07'714.0
2018-Feb-20 11:00N 49°56' W 002°18'713.9
2018-Feb-20 10:30N 49°54' W 002°28'713.5
2018-Feb-20 10:00N 49°52' W 002°38'713.2
2018-Feb-20 09:28N 49°50' W 002°49'612.6
2018-Feb-20 09:00N 49°47' W 002°57'612.6
2018-Feb-20 08:30N 49°44' W 003°05'612.5
2018-Feb-20 08:00N 49°41' W 003°14'5611.8
2018-Feb-20 03:17N 49°13' W 004°29'1210.4
2018-Feb-20 02:10N 49°08' W 004°44'2 9.9
2018-Feb-20 02:00N 49°07' W 004°46'6 9.7
2018-Feb-20 01:23N 49°04' W 004°54'22 9.4
2018-Feb-19 23:04N 48°52' W 005°22'2 9.7
2018-Feb-19 22:49N 48°51' W 005°25'3 9.8
2018-Feb-19 22:31N 48°49' W 005°29'510.0
2018-Feb-19 22:00N 48°46' W 005°35'5 9.9
2018-Feb-19 21:30N 48°42' W 005°40'1110.4
2018-Feb-19 20:29N 48°33' W 005°47'911.1
2018-Feb-19 19:43N 48°25' W 005°54'611.5
2018-Feb-19 19:14N 48°21' W 005°59'411.7
2018-Feb-19 18:53N 48°18' W 006°02'512.0
2018-Feb-19 18:28N 48°14' W 006°07'612.1
2018-Feb-19 17:58N 48°09' W 006°12'712.3
2018-Feb-19 17:23N 48°03' W 006°18'612.4
2018-Feb-19 16:53N 47°58' W 006°24'1312.4
2018-Feb-19 15:50N 47°47' W 006°35'1811.8
2018-Feb-19 14:20N 47°33' W 006°50'610.7
2018-Feb-19 13:48N 47°28' W 006°54'  
2018-Feb-15 11:52N 30°57' W 014°28'411.0
2018-Feb-15 11:30N 30°53' W 014°29'911.2
2018-Feb-15 10:41N 30°44' W 014°32'211.1
2018-Feb-15 10:30N 30°42' W 014°32'611.1
2018-Feb-15 09:55N 30°36' W 014°34'511.2
2018-Feb-15 09:26N 30°31' W 014°36'611.2
2018-Feb-15 08:53N 30°25' W 014°37'411.0
2018-Feb-15 08:29N 30°20' W 014°39'510.8
2018-Feb-15 08:00N 30°15' W 014°40'910.5
2018-Feb-15 07:11N 30°07' W 014°43'310.3
2018-Feb-15 06:56N 30°05' W 014°43'410.3
2018-Feb-15 06:30N 30°00' W 014°45'510.5
2018-Feb-15 06:01N 29°55' W 014°46'510.7
2018-Feb-15 05:30N 29°50' W 014°48'510.8
2018-Feb-15 05:00N 29°45' W 014°49'510.9
2018-Feb-15 04:30N 29°40' W 014°51'511.0
2018-Feb-15 04:00N 29°34' W 014°53'611.3
2018-Feb-15 03:31N 29°29' W 014°54'611.2
2018-Feb-15 03:00N 29°23' W 014°56'510.8
2018-Feb-15 02:31N 29°18' W 014°58'611.0
2018-Feb-15 02:01N 29°13' W 014°59'510.9
2018-Feb-15 01:30N 29°08' W 015°01'611.0
2018-Feb-15 01:00N 29°03' W 015°04'510.8
2018-Feb-15 00:30N 28°57' W 015°06'611.1
2018-Feb-15 00:00N 28°52' W 015°08'611.0
2018-Feb-14 23:30N 28°47' W 015°10'510.9
2018-Feb-14 23:00N 28°42' W 015°12'510.9
2018-Feb-14 22:30N 28°37' W 015°14'511.0
2018-Feb-14 22:00N 28°31' W 015°15'611.1
2018-Feb-14 21:30N 28°26' W 015°17'611.2
2018-Feb-14 21:00N 28°21' W 015°19'611.1
2018-Feb-14 20:30N 28°15' W 015°21'611.1
2018-Feb-14 20:00N 28°10' W 015°22'3 6.7
2018-Feb-14 19:30N 28°08' W 015°25'1 1.8
2018-Feb-14 19:00N 28°09' W 015°25'0 0.0
2018-Feb-14 18:30N 28°09' W 015°25'0 0.0
2018-Feb-14 17:51N 28°09' W 015°25'0 0.0
2018-Feb-14 17:18N 28°09' W 015°25'0 0.0
2018-Feb-14 16:54N 28°09' W 015°25'0 0.0
2018-Feb-14 16:24N 28°09' W 015°25'0 0.0
2018-Feb-14 15:54N 28°09' W 015°25'0 0.0
2018-Feb-14 15:24N 28°09' W 015°25'0 0.0
2018-Feb-14 14:44N 28°09' W 015°25'1 2.9
2018-Feb-14 14:31N 28°08' W 015°25'2 4.3
2018-Feb-14 14:01N 28°07' W 015°23'4 8.5
2018-Feb-14 13:30N 28°05' W 015°19'611.1
2018-Feb-14 13:01N 28°00' W 015°15'611.2
2018-Feb-14 12:30N 27°55' W 015°15'611.2
2018-Feb-14 12:00N 27°49' W 015°15'611.4
2018-Feb-14 11:30N 27°44' W 015°17'  
Track history (hours):
 
Tides and Currents Weather Stations Pressure Air Temp Water Temp Dewpoint Dewpoint Depression Visibility Wind Speed Wind Dir Waves Ship Positions

Scot Bremen

Last reported at 2018-Feb-22 18:56 UTC. Time now 2018-Feb-22 19:25 UTC.
Position N 51°12' E 003°48'.

Length 117 m; draft 8.2 m.

Type: Ship (hazmat cat A). MMSI: 249086000.

Date/timePositionNaut miles runAvg speedWind from/ knotsBaromVisibWave heightAir tempDewpointWater temp
2018-Feb-22 18:56N 51°12' E 003°48'0 0.0
2018-Feb-22 18:26N 51°12' E 003°48'0 0.0
2018-Feb-22 17:56N 51°12' E 003°48'0 0.0
2018-Feb-22 17:26N 51°12' E 003°48'0 0.0
2018-Feb-22 16:44N 51°12' E 003°48'0 0.0
2018-Feb-22 16:20N 51°12' E 003°48'0 0.0
2018-Feb-22 15:56N 51°12' E 003°48'0 0.0
2018-Feb-22 15:26N 51°12' E 003°48'0 0.0
2018-Feb-22 14:50N 51°12' E 003°48'0 0.0
2018-Feb-22 14:20N 51°12' E 003°48'0 0.0
2018-Feb-22 13:56N 51°12' E 003°48'0 0.0
2018-Feb-22 13:02N 51°12' E 003°48'0 0.0
2018-Feb-22 12:50N 51°12' E 003°48'0 0.0
2018-Feb-22 12:26N 51°12' E 003°48'0 0.0
2018-Feb-22 11:56N 51°12' E 003°48'0 0.0
2018-Feb-22 11:20N 51°12' E 003°48'0 0.0
2018-Feb-22 10:56N 51°12' E 003°48'0 0.0
2018-Feb-22 10:26N 51°12' E 003°48'0 0.0
2018-Feb-22 09:56N 51°12' E 003°48'0 0.0
2018-Feb-22 09:20N 51°12' E 003°48'0 0.5
2018-Feb-22 09:00N 51°12' E 003°48'0 0.0
2018-Feb-22 08:30N 51°12' E 003°48'0 0.0
2018-Feb-22 08:00N 51°12' E 003°48'0 0.0
2018-Feb-22 07:30N 51°12' E 003°48'0 0.0
2018-Feb-22 07:00N 51°12' E 003°48'0 0.0
2018-Feb-22 06:16N 51°12' E 003°48'0 0.0
2018-Feb-22 06:00N 51°12' E 003°48'0 0.0
2018-Feb-22 05:30N 51°12' E 003°48'0 0.0
2018-Feb-22 04:54N 51°12' E 003°48'0 0.0
2018-Feb-22 04:30N 51°12' E 003°48'0 0.0
2018-Feb-22 04:00N 51°12' E 003°48'0 0.0
2018-Feb-22 03:30N 51°12' E 003°48'0 0.0
2018-Feb-22 03:00N 51°12' E 003°48'0 0.0
2018-Feb-22 02:30N 51°12' E 003°48'0 0.0
2018-Feb-22 02:00N 51°12' E 003°48'0 0.0
2018-Feb-22 01:30N 51°12' E 003°48'0 0.0
2018-Feb-22 01:00N 51°12' E 003°48'0 0.0
2018-Feb-22 00:30N 51°12' E 003°48'0 0.0
2018-Feb-22 00:00N 51°12' E 003°48'0 0.0
2018-Feb-21 23:30N 51°12' E 003°48'0 0.0
2018-Feb-21 23:00N 51°12' E 003°48'0 0.0
2018-Feb-21 22:30N 51°12' E 003°48'0 0.0
2018-Feb-21 22:00N 51°12' E 003°48'0 0.0
2018-Feb-21 21:30N 51°12' E 003°48'0 0.0
2018-Feb-21 21:00N 51°12' E 003°48'0 0.0
2018-Feb-21 20:30N 51°12' E 003°48'0 0.0
2018-Feb-21 20:00N 51°12' E 003°48'0 0.0
2018-Feb-21 19:30N 51°12' E 003°48'0 0.0
2018-Feb-21 18:48N 51°12' E 003°48'0 0.0
2018-Feb-21 18:30N 51°12' E 003°48'0 0.0
2018-Feb-21 18:00N 51°12' E 003°48'0 0.0
2018-Feb-21 17:30N 51°12' E 003°48'0 0.0
2018-Feb-21 16:54N 51°12' E 003°48'0 0.0
2018-Feb-21 16:30N 51°12' E 003°48'0 0.0
2018-Feb-21 16:00N 51°12' E 003°48'0 0.0
2018-Feb-21 15:24N 51°12' E 003°48'0 0.0
2018-Feb-21 15:00N 51°12' E 003°48'0 0.1
2018-Feb-21 14:30N 51°12' E 003°48'2 4.9
2018-Feb-21 14:01N 51°15' E 003°49'3 6.2
2018-Feb-21 13:31N 51°18' E 003°50'2 4.1
2018-Feb-21 13:00N 51°20' E 003°49'0 0.1
2018-Feb-21 12:30N 51°20' E 003°49'2 4.3
2018-Feb-21 12:00N 51°21' E 003°47'510.5
2018-Feb-21 11:30N 51°26' E 003°42'5 9.3
2018-Feb-21 11:00N 51°25' E 003°34'3 6.5
2018-Feb-21 10:30N 51°25' E 003°29'3 6.4
2018-Feb-21 10:00N 51°24' E 003°24'4 8.2
2018-Feb-21 09:30N 51°24' E 003°17'5 9.3
2018-Feb-21 09:00N 51°24' E 003°10'5 9.9
2018-Feb-21 08:30N 51°24' E 003°02'510.7
2018-Feb-21 08:00N 51°22' E 002°54'611.0
2018-Feb-21 07:30N 51°22' E 002°45'4 8.1
2018-Feb-21 06:59N 51°22' E 002°39'510.4
2018-Feb-21 06:30N 51°22' E 002°30'610.7
2018-Feb-21 05:59N 51°20' E 002°22'510.5
2018-Feb-21 05:30N 51°17' E 002°15'510.1
2018-Feb-21 05:01N 51°15' E 002°08'510.4
2018-Feb-21 04:29N 51°12' E 002°01'510.7
2018-Feb-21 04:00N 51°10' E 001°54'510.8
2018-Feb-21 03:30N 51°07' E 001°47'9310.5
2018-Feb-20 18:39N 50°17' W 000°17'23 8.7
2018-Feb-20 16:02N 50°11' W 000°51'0 8.6
2018-Feb-20 16:00N 50°11' W 000°52'4 8.7
2018-Feb-20 15:30N 50°10' W 000°58'5 9.0
2018-Feb-20 15:00N 50°09' W 001°05'5 9.8
2018-Feb-20 14:30N 50°07' W 001°12'510.4
2018-Feb-20 14:00N 50°06' W 001°20'611.2
2018-Feb-20 13:30N 50°04' W 001°28'611.9
2018-Feb-20 13:00N 50°02' W 001°37'612.7
2018-Feb-20 12:30N 50°00' W 001°47'713.4
2018-Feb-20 12:01N 49°59' W 001°57'713.9
2018-Feb-20 11:30N 49°57' W 002°07'714.0
2018-Feb-20 11:00N 49°56' W 002°18'713.9
2018-Feb-20 10:30N 49°54' W 002°28'713.5
2018-Feb-20 10:00N 49°52' W 002°38'713.2
2018-Feb-20 09:28N 49°50' W 002°49'612.6
2018-Feb-20 09:00N 49°47' W 002°57'612.6
2018-Feb-20 08:30N 49°44' W 003°05'612.5
2018-Feb-20 08:00N 49°41' W 003°14'5611.8
2018-Feb-20 03:17N 49°13' W 004°29'1210.4
2018-Feb-20 02:10N 49°08' W 004°44'2 9.9
2018-Feb-20 02:00N 49°07' W 004°46'6 9.7
2018-Feb-20 01:23N 49°04' W 004°54'22 9.4
2018-Feb-19 23:04N 48°52' W 005°22'2 9.7
2018-Feb-19 22:49N 48°51' W 005°25'3 9.8
2018-Feb-19 22:31N 48°49' W 005°29'510.0
2018-Feb-19 22:00N 48°46' W 005°35'5 9.9
2018-Feb-19 21:30N 48°42' W 005°40'1110.4
2018-Feb-19 20:29N 48°33' W 005°47'911.1
2018-Feb-19 19:43N 48°25' W 005°54'611.5
2018-Feb-19 19:14N 48°21' W 005°59'411.7
2018-Feb-19 18:53N 48°18' W 006°02'512.0
2018-Feb-19 18:28N 48°14' W 006°07'612.1
2018-Feb-19 17:58N 48°09' W 006°12'712.3
2018-Feb-19 17:23N 48°03' W 006°18'612.4
2018-Feb-19 16:53N 47°58' W 006°24'1312.4
2018-Feb-19 15:50N 47°47' W 006°35'1811.8
2018-Feb-19 14:20N 47°33' W 006°50'610.7
2018-Feb-19 13:48N 47°28' W 006°54'  
2018-Feb-15 11:52N 30°57' W 014°28'411.0
2018-Feb-15 11:30N 30°53' W 014°29'911.2
2018-Feb-15 10:41N 30°44' W 014°32'211.1
2018-Feb-15 10:30N 30°42' W 014°32'611.1
2018-Feb-15 09:55N 30°36' W 014°34'511.2
2018-Feb-15 09:26N 30°31' W 014°36'611.2
2018-Feb-15 08:53N 30°25' W 014°37'411.0
2018-Feb-15 08:29N 30°20' W 014°39'510.8
2018-Feb-15 08:00N 30°15' W 014°40'910.5
2018-Feb-15 07:11N 30°07' W 014°43'310.3
2018-Feb-15 06:56N 30°05' W 014°43'410.3
2018-Feb-15 06:30N 30°00' W 014°45'510.5
2018-Feb-15 06:01N 29°55' W 014°46'510.7
2018-Feb-15 05:30N 29°50' W 014°48'510.8
2018-Feb-15 05:00N 29°45' W 014°49'510.9
2018-Feb-15 04:30N 29°40' W 014°51'511.0
2018-Feb-15 04:00N 29°34' W 014°53'611.3
2018-Feb-15 03:31N 29°29' W 014°54'611.2
2018-Feb-15 03:00N 29°23' W 014°56'510.8
2018-Feb-15 02:31N 29°18' W 014°58'611.0
2018-Feb-15 02:01N 29°13' W 014°59'510.9
2018-Feb-15 01:30N 29°08' W 015°01'611.0
2018-Feb-15 01:00N 29°03' W 015°04'510.8
2018-Feb-15 00:30N 28°57' W 015°06'611.1
2018-Feb-15 00:00N 28°52' W 015°08'611.0
2018-Feb-14 23:30N 28°47' W 015°10'510.9
2018-Feb-14 23:00N 28°42' W 015°12'510.9
2018-Feb-14 22:30N 28°37' W 015°14'511.0
2018-Feb-14 22:00N 28°31' W 015°15'611.1
2018-Feb-14 21:30N 28°26' W 015°17'611.2
2018-Feb-14 21:00N 28°21' W 015°19'611.1
2018-Feb-14 20:30N 28°15' W 015°21'611.1
2018-Feb-14 20:00N 28°10' W 015°22'3 6.7
2018-Feb-14 19:30N 28°08' W 015°25'1 1.8
2018-Feb-14 19:00N 28°09' W 015°25'0 0.0
2018-Feb-14 18:30N 28°09' W 015°25'0 0.0
2018-Feb-14 17:51N 28°09' W 015°25'0 0.0
2018-Feb-14 17:18N 28°09' W 015°25'0 0.0
2018-Feb-14 16:54N 28°09' W 015°25'0 0.0
2018-Feb-14 16:24N 28°09' W 015°25'0 0.0
2018-Feb-14 15:54N 28°09' W 015°25'0 0.0
2018-Feb-14 15:24N 28°09' W 015°25'0 0.0
2018-Feb-14 14:44N 28°09' W 015°25'1 2.9
2018-Feb-14 14:31N 28°08' W 015°25'2 4.3
2018-Feb-14 14:01N 28°07' W 015°23'4 8.5
2018-Feb-14 13:30N 28°05' W 015°19'611.1
2018-Feb-14 13:01N 28°00' W 015°15'611.2
2018-Feb-14 12:30N 27°55' W 015°15'611.2
2018-Feb-14 12:00N 27°49' W 015°15'611.4
2018-Feb-14 11:30N 27°44' W 015°17'  

Dump ship's entire track history